Time;durP1;ratioP1;P1;durP2;ratioP2;P2;SDS_P1;SDS_P2;PMS_P1;PMS_P2;Temp;Humidity;BMP_temperature;BMP_pressure;BME280_temperature;BME280_humidity;BME280_pressure;Samples;Min_cycle;Max_cycle;Signal;HPM_P1;HPM_P2
2022/05/30 00:00:22;;;;;;;2.72;1.75;;;;;;;15.46;50.91;99484.91;1733798;82;21032;-81
2022/05/30 00:02:49;;;;;;;4.12;1.80;;;;;;;15.43;50.38;99483.73;1733524;82;21524;-81
2022/05/30 00:05:16;;;;;;;2.02;1.67;;;;;;;15.42;50.64;99490.00;1733741;82;21547;-81
2022/05/30 00:07:42;;;;;;;2.55;1.77;;;;;;;15.42;51.02;99484.70;1733712;82;21107;-82
2022/05/30 00:10:11;;;;;;;3.37;1.90;;;;;;;15.39;51.59;99482.21;1734004;82;21535;-82
2022/05/30 00:12:39;;;;;;;2.58;1.60;;;;;;;15.40;51.55;99483.94;1733894;82;21547;-82
2022/05/30 00:15:10;;;;;;;4.08;1.50;;;;;;;15.37;51.95;99476.14;1733891;82;21128;-82
2022/05/30 00:17:37;;;;;;;2.15;1.35;;;;;;;15.38;51.75;99475.19;1733927;82;21111;-81
2022/05/30 00:20:07;;;;;;;1.65;1.47;;;;;;;15.36;51.74;99467.31;1734006;81;21017;-82
2022/05/30 00:22:35;;;;;;;3.40;1.37;;;;;;;15.37;52.17;99468.19;1733783;82;21028;-81
2022/05/30 00:25:03;;;;;;;2.12;1.55;;;;;;;15.36;52.61;99466.47;1733753;82;20996;-82
2022/05/30 00:27:30;;;;;;;1.82;1.57;;;;;;;15.36;53.17;99471.77;1733516;82;21627;-82
2022/05/30 00:29:57;;;;;;;1.60;1.45;;;;;;;15.35;53.34;99470.08;1733600;82;21155;-82
2022/05/30 00:32:24;;;;;;;1.50;1.40;;;;;;;15.34;53.52;99461.25;1733750;82;21135;-83
2022/05/30 00:34:52;;;;;;;2.08;1.60;;;;;;;15.33;53.77;99470.61;1736025;82;21123;-82
2022/05/30 00:37:18;;;;;;;5.75;1.77;;;;;;;15.32;54.52;99465.78;1740715;82;21528;-81
2022/05/30 00:39:45;;;;;;;4.40;1.80;;;;;;;15.30;54.82;99465.02;1740588;82;21509;-82
2022/05/30 00:42:20;;;;;;;3.52;1.57;;;;;;;15.29;54.71;99469.08;1740411;82;21042;-82
2022/05/30 00:44:48;;;;;;;3.70;1.80;;;;;;;15.29;54.67;99467.28;1740727;82;21164;-82
2022/05/30 00:47:16;;;;;;;3.60;1.92;;;;;;;15.29;55.04;99465.11;1740692;82;21129;-81
2022/05/30 00:49:45;;;;;;;3.02;1.60;;;;;;;15.27;55.75;99465.19;1740326;82;20986;-82
2022/05/30 00:52:19;;;;;;;3.37;1.60;;;;;;;15.26;55.87;99462.62;1740328;82;21141;-82
2022/05/30 00:54:52;;;;;;;;;;;;;;;15.24;56.11;99458.24;1735624;82;21069;-82
2022/05/30 00:57:22;;;;;;;3.62;2.17;;;;;;;15.23;56.71;99441.97;1740608;82;20194;-82
2022/05/30 01:00:09;;;;;;;4.25;1.95;;;;;;;15.21;56.87;99427.08;1740798;82;21076;-82
2022/05/30 01:02:38;;;;;;;5.75;1.80;;;;;;;15.18;57.13;99410.02;1740591;82;21128;-81
2022/05/30 01:07:53;;;;;;;8.68;2.00;;;;;;;15.13;57.76;99407.64;1740333;82;21144;-82
2022/05/30 01:10:21;;;;;;;3.02;1.60;;;;;;;15.11;57.92;99397.58;1740812;82;21144;-81
2022/05/30 01:12:52;;;;;;;2.80;1.92;;;;;;;15.09;58.39;99392.84;1740569;82;21632;-81
2022/05/30 01:15:26;;;;;;;4.60;1.70;;;;;;;15.06;59.14;99389.02;1718548;82;21109;-82
2022/05/30 01:18:11;;;;;;;3.02;1.77;;;;;;;15.00;59.03;99371.69;1740938;82;21132;-82
2022/05/30 01:21:05;;;;;;;2.67;1.62;;;;;;;14.97;59.01;99361.73;1740629;82;21077;-82
2022/05/30 01:23:58;;;;;;;4.10;1.90;;;;;;;14.93;59.25;99346.92;1747295;82;21666;-82
2022/05/30 01:27:01;;;;;;;4.90;1.80;;;;;;;14.89;59.77;99352.87;1742830;82;21014;-82
2022/05/30 01:29:37;;;;;;;2.27;1.70;;;;;;;14.85;60.22;99354.83;1745694;82;21049;-81
2022/05/30 01:32:04;;;;;;;3.42;1.72;;;;;;;14.81;60.21;99365.23;1677791;84;21173;-82
2022/05/30 01:34:30;;;;;;;5.08;1.80;;;;;;;14.79;60.60;99369.76;1741769;82;21067;-82
2022/05/30 01:36:57;;;;;;;2.25;2.00;;;;;;;14.77;60.75;99366.31;1741574;82;21059;-82
2022/05/30 01:39:27;;;;;;;7.55;1.85;;;;;;;14.75;61.00;99364.70;1741204;82;21040;-82
2022/05/30 01:41:55;;;;;;;3.90;2.15;;;;;;;14.71;61.19;99357.40;1742019;82;21071;-82
2022/05/30 01:44:21;;;;;;;2.42;1.70;;;;;;;14.67;61.19;99363.30;1741767;82;21127;-83
2022/05/30 01:46:48;;;;;;;1.77;1.67;;;;;;;14.64;61.71;99362.62;1742039;82;21107;-82
2022/05/30 01:49:15;;;;;;;3.83;2.05;;;;;;;14.60;61.69;99370.35;1741822;82;21602;-81
2022/05/30 01:51:42;;;;;;;2.00;1.80;;;;;;;14.57;61.65;99369.16;1741891;82;21047;-82
2022/05/30 01:54:09;;;;;;;4.12;2.00;;;;;;;14.55;62.06;99372.36;1741996;82;21008;-81
2022/05/30 01:56:37;;;;;;;5.90;2.00;;;;;;;14.53;61.87;99372.92;1737274;82;22276;-82
2022/05/30 01:59:04;;;;;;;5.60;1.87;;;;;;;14.49;62.40;99367.78;1741979;82;21090;-82
2022/05/30 02:01:51;;;;;;;1.90;1.80;;;;;;;14.47;62.71;99371.43;1710685;82;21354;-82
2022/05/30 02:04:18;;;;;;;5.08;1.95;;;;;;;14.47;63.01;99372.75;1742293;82;21094;-82
2022/05/30 02:06:45;;;;;;;2.40;2.15;;;;;;;14.47;63.29;99373.63;1741931;82;21075;-82
2022/05/30 02:09:12;;;;;;;4.03;2.40;;;;;;;14.47;63.43;99367.02;1741864;82;21141;-82
2022/05/30 02:11:39;;;;;;;2.02;1.92;;;;;;;14.49;63.84;99358.96;1741795;82;21043;-81
2022/05/30 02:14:24;;;;;;;;;;;;;;;14.48;63.90;99355.47;1744592;82;21914;-82
2022/05/30 02:17:04;;;;;;;3.25;2.12;;;;;;;14.49;64.48;99354.55;1741866;81;20163;-82
2022/05/30 02:19:43;;;;;;;3.25;2.08;;;;;;;14.48;64.88;99348.00;1741917;82;21066;-82
2022/05/30 02:22:15;;;;;;;3.17;2.30;;;;;;;14.45;65.43;99348.16;1740489;81;21126;-82
2022/05/30 02:24:42;;;;;;;2.47;2.27;;;;;;;14.44;65.71;99351.29;1733639;82;21063;-82
2022/05/30 02:27:12;;;;;;;3.42;2.10;;;;;;;14.42;66.24;99347.84;1733686;82;21047;-82
2022/05/30 02:29:42;;;;;;;2.42;2.20;;;;;;;14.40;66.74;99347.08;1733671;82;21830;-83
2022/05/30 02:32:09;;;;;;;4.87;2.80;;;;;;;14.39;67.11;99337.45;1734030;82;21067;-81
2022/05/30 02:37:22;;;;;;;2.80;2.37;;;;;;;14.35;67.88;99330.59;1735709;82;28320;-82
2022/05/30 02:39:50;;;;;;;2.55;2.15;;;;;;;14.34;67.99;99332.86;1740918;82;21124;-82
2022/05/30 02:42:36;;;;;;;2.62;2.27;;;;;;;14.33;67.90;99325.84;1740721;82;21069;-82
2022/05/30 02:45:06;;;;;;;4.55;2.50;;;;;;;14.34;68.31;99337.28;1740696;82;21609;-84
2022/05/30 02:47:35;;;;;;;2.90;2.12;;;;;;;14.35;68.70;99346.47;1740860;82;21034;-82
2022/05/30 02:50:04;;;;;;;2.45;2.25;;;;;;;14.35;68.71;99353.56;1739804;82;21513;-82
2022/05/30 02:52:31;;;;;;;3.45;2.65;;;;;;;14.35;69.01;99357.05;1740518;82;21667;-83
2022/05/30 02:54:58;;;;;;;4.03;2.80;;;;;;;14.36;68.95;99358.77;1740532;82;21589;-82
2022/05/30 02:57:26;;;;;;;4.22;2.98;;;;;;;14.38;69.54;99356.89;1738234;82;21046;-82
2022/05/30 02:59:53;;;;;;;5.90;2.70;;;;;;;14.36;69.76;99348.19;1740652;82;21127;-82
2022/05/30 03:02:19;;;;;;;6.65;2.70;;;;;;;14.35;69.84;99370.28;1740466;82;21011;-82
2022/05/30 03:04:46;;;;;;;2.60;2.35;;;;;;;14.37;69.96;99375.50;1740621;82;21066;-82
2022/05/30 03:07:13;;;;;;;2.45;2.25;;;;;;;14.39;70.03;99368.33;1740592;82;21070;-82
2022/05/30 03:09:39;;;;;;;2.75;2.55;;;;;;;14.37;70.46;99365.77;1740934;82;21108;-82
2022/05/30 03:12:11;;;;;;;4.25;2.47;;;;;;;14.35;70.59;99386.64;1740051;82;21177;-82
2022/05/30 03:14:38;;;;;;;2.90;2.70;;;;;;;14.32;70.67;99391.61;1740574;82;21022;-82
2022/05/30 03:17:06;;;;;;;3.00;2.40;;;;;;;14.32;70.73;99403.52;1740788;82;21611;-83
2022/05/30 03:19:33;;;;;;;2.47;2.27;;;;;;;14.33;70.69;99406.57;1740638;82;21477;-83
2022/05/30 03:22:00;;;;;;;4.47;2.75;;;;;;;14.35;70.74;99417.08;1740632;82;21113;-83
2022/05/30 03:24:26;;;;;;;2.75;2.55;;;;;;;14.35;70.42;99415.28;1754654;81;21843;-80
2022/05/30 03:26:53;;;;;;;3.83;3.02;;;;;;;14.38;70.48;99407.66;1755435;81;21014;-82
2022/05/30 03:29:20;;;;;;;11.00;3.22;;;;;;;14.42;70.66;99406.08;1755401;81;20993;-82
2022/05/30 03:31:48;;;;;;;2.62;2.42;;;;;;;14.42;71.12;99395.48;1755372;81;21012;-82
2022/05/30 03:34:15;;;;;;;2.95;2.70;;;;;;;14.42;71.40;99394.16;1755761;81;21197;-83
2022/05/30 03:36:42;;;;;;;4.45;2.87;;;;;;;14.43;71.92;99380.00;1755317;81;21610;-82
2022/05/30 03:39:29;;;;;;;4.65;2.85;;;;;;;14.42;71.85;99374.31;1755072;81;21070;-83
2022/05/30 03:42:14;;;;;;;3.62;3.00;;;;;;;14.42;72.02;99375.64;1755689;81;21059;-82
2022/05/30 03:44:53;;;;;;;5.15;3.10;;;;;;;14.43;72.30;99367.25;1754423;81;21003;-82
2022/05/30 03:47:19;;;;;;;5.83;2.98;;;;;;;14.44;72.48;99365.84;1755399;81;21109;-82
2022/05/30 03:49:47;;;;;;;4.30;2.72;;;;;;;14.47;72.49;99348.48;1755658;81;21052;-82
2022/05/30 03:52:15;;;;;;;4.08;2.67;;;;;;;14.52;72.51;99344.72;1755396;81;21027;-82
2022/05/30 03:54:44;;;;;;;3.10;2.80;;;;;;;14.53;72.29;99348.61;1755423;81;21554;-83
2022/05/30 03:57:11;;;;;;;6.72;2.72;;;;;;;14.54;72.32;99351.66;1755576;81;21019;-82
2022/05/30 03:59:38;;;;;;;5.40;2.98;;;;;;;14.54;72.23;99334.45;1755559;81;21471;-82
2022/05/30 04:02:06;;;;;;;5.12;2.70;;;;;;;14.53;72.33;99326.59;1755366;81;20980;-83
2022/05/30 04:04:33;;;;;;;3.20;2.87;;;;;;;14.52;72.60;99326.19;1755242;81;21055;-84
2022/05/30 04:07:00;;;;;;;5.10;3.00;;;;;;;14.53;72.67;99339.83;1755674;81;21079;-82
2022/05/30 04:09:27;;;;;;;5.22;3.40;;;;;;;14.54;72.69;99342.84;1756018;81;21534;-81
2022/05/30 04:12:12;;;;;;;5.30;2.98;;;;;;;14.55;73.02;99340.11;1755653;81;21130;-83
2022/05/30 04:14:59;;;;;;;6.37;3.17;;;;;;;14.56;73.19;99339.63;1755562;81;21830;-83
2022/05/30 04:17:27;;;;;;;4.67;3.27;;;;;;;14.54;73.28;99334.89;1755259;81;21918;-83
2022/05/30 04:19:54;;;;;;;3.37;2.90;;;;;;;14.55;73.71;99322.05;1755328;81;21059;-83
2022/05/30 04:22:21;;;;;;;3.50;3.02;;;;;;;14.55;73.84;99323.38;1755266;81;21059;-82
2022/05/30 04:25:09;;;;;;;4.10;3.80;;;;;;;14.54;74.21;99324.30;1664836;86;21597;-82
2022/05/30 04:27:36;;;;;;;9.98;4.47;;;;;;;14.49;74.49;99325.42;1664458;86;21166;-82
2022/05/30 04:30:07;;;;;;;7.33;3.90;;;;;;;14.47;74.62;99321.13;1697579;81;21578;-83
2022/05/30 04:32:36;;;;;;;7.75;4.12;;;;;;;14.45;74.72;99327.83;1755033;81;21067;-83
2022/05/30 04:35:07;;;;;;;5.85;3.98;;;;;;;14.45;74.86;99344.19;1755582;81;21082;-82
2022/05/30 04:37:34;;;;;;;6.17;4.42;;;;;;;14.46;74.80;99337.97;1755409;81;21007;-82
2022/05/30 04:40:09;;;;;;;6.90;4.08;;;;;;;14.46;75.03;99344.11;1753134;81;21523;-83
2022/05/30 04:42:57;;;;;;;4.65;3.83;;;;;;;14.45;74.80;99350.33;1754891;81;21617;-83
2022/05/30 04:45:33;;;;;;;4.10;3.80;;;;;;;14.47;75.17;99351.13;1710154;83;21063;-82
2022/05/30 04:48:06;;;;;;;4.50;3.70;;;;;;;14.50;75.34;99360.20;1752193;81;21294;-84
2022/05/30 04:50:33;;;;;;;4.47;4.08;;;;;;;14.50;75.80;99376.09;1756021;81;21132;-83
2022/05/30 04:52:59;;;;;;;5.30;4.30;;;;;;;14.47;75.93;99372.75;1755394;81;21106;-83
2022/05/30 04:55:43;;;;;;;6.10;4.15;;;;;;;14.44;76.22;99365.84;1752504;81;21778;-82
2022/05/30 04:58:11;;;;;;;6.97;3.70;;;;;;;14.45;76.73;99368.86;1755296;81;21039;-81
2022/05/30 05:01:00;;;;;;;4.33;3.92;;;;;;;14.45;77.12;99383.42;1753920;81;21581;-85
2022/05/30 05:03:28;;;;;;;4.62;3.80;;;;;;;14.44;77.21;99405.55;1755887;81;21079;-82
2022/05/30 05:06:07;;;;;;;5.62;3.55;;;;;;;14.43;77.55;99405.63;1755460;81;21112;-83
2022/05/30 05:08:55;;;;;;;7.15;3.58;;;;;;;14.44;77.66;99426.73;1755445;81;21122;-84
2022/05/30 05:11:36;;;;;;;5.58;3.77;;;;;;;14.45;77.97;99450.92;1755524;81;20988;-83
2022/05/30 05:14:23;;;;;;;3.95;3.30;;;;;;;14.44;78.07;99450.55;1755484;81;21007;-83
2022/05/30 05:17:00;;;;;;;3.85;2.85;;;;;;;14.45;78.24;99469.93;1681101;85;21036;-85
2022/05/30 05:19:28;;;;;;;2.92;2.75;;;;;;;14.46;78.31;99452.65;1755360;81;21520;-85
2022/05/30 05:21:54;;;;;;;4.97;2.90;;;;;;;14.50;78.53;99450.22;1755231;81;21095;-83
2022/05/30 05:24:21;;;;;;;2.90;2.67;;;;;;;14.51;78.66;99443.16;1746807;81;21047;-84
2022/05/30 05:27:06;;;;;;;3.25;2.95;;;;;;;14.52;78.82;99455.44;1737709;81;21045;-84
2022/05/30 05:29:32;;;;;;;5.40;2.90;;;;;;;14.53;79.02;99461.61;1733923;82;21064;-83
2022/05/30 05:32:01;;;;;;;2.87;2.67;;;;;;;14.54;78.83;99460.66;1733589;82;21087;-85
2022/05/30 05:34:28;;;;;;;3.47;3.08;;;;;;;14.53;78.90;99452.34;1733718;82;21025;-85
2022/05/30 05:36:54;;;;;;;2.98;2.75;;;;;;;14.52;79.13;99447.97;1733872;82;21112;-83
2022/05/30 05:39:22;;;;;;;3.22;2.90;;;;;;;14.49;79.30;99447.20;1733901;82;21083;-84
2022/05/30 05:41:50;;;;;;;2.87;2.60;;;;;;;14.50;79.54;99443.59;1733791;81;21100;-84
2022/05/30 05:44:18;;;;;;;3.27;2.87;;;;;;;14.52;79.50;99444.00;1733664;82;21255;-84
2022/05/30 05:46:45;;;;;;;4.03;3.00;;;;;;;14.54;79.62;99446.97;1733803;82;21045;-83
2022/05/30 05:49:13;;;;;;;3.33;3.00;;;;;;;14.58;79.46;99455.61;1733620;82;21064;-81
2022/05/30 05:51:40;;;;;;;4.30;3.05;;;;;;;14.61;79.07;99458.13;1712789;82;21583;-83
2022/05/30 05:54:10;;;;;;;4.40;2.80;;;;;;;14.63;79.49;99438.56;1733717;82;21048;-83
2022/05/30 05:56:39;;;;;;;5.05;3.20;;;;;;;14.65;79.65;99442.45;1733705;82;22131;-83
2022/05/30 05:59:07;;;;;;;3.05;2.75;;;;;;;14.65;79.95;99438.00;1733483;82;21068;-83
2022/05/30 06:01:34;;;;;;;3.27;2.98;;;;;;;14.65;79.96;99427.41;1733842;82;21135;-83
2022/05/30 06:04:05;;;;;;;3.27;2.98;;;;;;;14.67;80.18;99431.31;1733955;82;21071;-83
2022/05/30 06:06:44;;;;;;;3.30;2.95;;;;;;;14.70;80.20;99433.80;1734127;82;21107;-83
2022/05/30 06:09:13;;;;;;;2.75;2.30;;;;;;;14.74;80.46;99432.69;1733777;82;23299;-83
2022/05/30 06:11:43;;;;;;;2.60;2.40;;;;;;;14.74;80.42;99432.69;1731334;82;21020;-82
2022/05/30 06:14:09;;;;;;;2.65;2.45;;;;;;;14.75;80.34;99450.30;1733902;82;21096;-82
2022/05/30 06:16:38;;;;;;;2.80;2.50;;;;;;;14.75;80.18;99447.66;1713310;82;21016;-81
2022/05/30 06:19:07;;;;;;;2.70;2.50;;;;;;;14.75;79.95;99451.63;1733715;82;21119;-81
2022/05/30 06:21:33;;;;;;;4.42;2.10;;;;;;;14.75;79.85;99447.66;1734126;82;21095;-83
2022/05/30 06:24:00;;;;;;;2.55;2.35;;;;;;;14.76;79.72;99440.11;1738410;81;21103;-82
2022/05/30 06:26:45;;;;;;;2.55;2.30;;;;;;;14.74;79.69;99432.69;1747760;82;21067;-83
2022/05/30 06:29:29;;;;;;;2.60;2.20;;;;;;;14.73;79.87;99432.31;1747288;82;21102;-82
2022/05/30 06:31:57;;;;;;;3.25;2.62;;;;;;;14.70;80.04;99428.50;1747889;82;21062;-83
2022/05/30 06:34:25;;;;;;;2.42;2.10;;;;;;;14.69;80.08;99418.83;1747777;82;21162;-83
2022/05/30 06:36:51;;;;;;;3.67;2.20;;;;;;;14.68;80.12;99405.22;1747720;82;21023;-82
2022/05/30 06:39:18;;;;;;;2.40;2.30;;;;;;;14.69;80.24;99385.73;1746253;82;21076;-83
2022/05/30 06:41:48;;;;;;;3.98;2.60;;;;;;;14.68;80.47;99369.48;1744163;82;21568;-83
2022/05/30 06:44:15;;;;;;;2.77;2.50;;;;;;;14.68;80.86;99369.48;1746404;82;21093;-84
2022/05/30 06:46:53;;;;;;;4.70;2.37;;;;;;;14.67;81.00;99359.33;1746354;82;21215;-83
2022/05/30 06:49:39;;;;;;;2.50;2.27;;;;;;;14.65;81.21;99358.56;1746255;82;21010;-83
2022/05/30 06:52:08;;;;;;;3.35;2.30;;;;;;;14.59;81.32;99340.83;1718772;82;21516;-84
2022/05/30 06:54:35;;;;;;;3.30;2.37;;;;;;;14.52;81.38;99328.84;1746076;82;21578;-85
2022/05/30 06:59:49;;;;;;;2.00;1.90;;;;;;;14.47;81.41;99331.72;1723556;82;21212;-84
2022/05/30 07:02:16;;;;;;;2.45;2.02;;;;;;;14.40;81.37;99327.22;1746615;82;21132;-83
2022/05/30 07:05:01;;;;;;;2.47;2.12;;;;;;;14.37;81.64;99319.44;1746485;82;23030;-84
2022/05/30 07:07:46;;;;;;;2.30;2.10;;;;;;;14.33;81.84;99324.53;1746073;82;21094;-83
2022/05/30 07:10:21;;;;;;;3.77;2.77;;;;;;;14.27;82.03;99312.48;1726581;82;21037;-84
2022/05/30 07:12:52;;;;;;;3.42;2.30;;;;;;;14.24;82.34;99295.89;1745501;82;22480;-84
2022/05/30 07:15:19;;;;;;;2.52;2.30;;;;;;;14.20;82.52;99303.62;1718594;82;21623;-83
2022/05/30 07:17:46;;;;;;;4.17;2.47;;;;;;;14.20;82.58;99302.30;1746137;82;21069;-83
2022/05/30 07:20:14;;;;;;;6.30;2.95;;;;;;;14.19;82.74;99295.28;1746322;82;21144;-83
2022/05/30 07:22:48;;;;;;;4.80;3.55;;;;;;;14.18;82.81;99294.91;1703922;82;21037;-83
2022/05/30 07:25:38;;;;;;;5.20;3.45;;;;;;;14.17;82.99;99283.48;1748271;82;22070;-83
2022/05/30 07:28:31;;;;;;;4.83;3.25;;;;;;;14.17;83.03;99287.45;1743453;82;21134;-82
2022/05/30 07:31:17;;;;;;;6.22;3.12;;;;;;;14.18;83.12;99284.33;1741977;82;21079;-84
2022/05/30 07:34:01;;;;;;;5.28;3.17;;;;;;;14.16;83.09;99279.59;1742023;82;21665;-85
2022/05/30 07:36:48;;;;;;;4.08;3.10;;;;;;;14.13;83.17;99274.83;1741948;82;21086;-84
2022/05/30 07:39:19;;;;;;;5.78;3.15;;;;;;;14.11;83.29;99268.77;1740425;82;21107;-84
2022/05/30 07:41:48;;;;;;;3.85;3.10;;;;;;;14.13;83.47;99268.22;1737171;82;20985;-83
2022/05/30 07:44:16;;;;;;;3.02;2.75;;;;;;;14.15;83.55;99265.48;1739051;82;22213;-83
2022/05/30 07:46:53;;;;;;;8.60;3.12;;;;;;;14.16;83.62;99263.24;1739029;82;21008;-82
2022/05/30 07:49:24;;;;;;;4.65;3.55;;;;;;;14.21;83.58;99259.03;1719774;82;21044;-82
2022/05/30 07:52:06;;;;;;;3.85;3.05;;;;;;;14.24;83.60;99274.72;1723812;82;22235;-84
2022/05/30 07:54:37;;;;;;;2.92;2.55;;;;;;;14.22;83.48;99285.86;1741031;82;21064;-84
2022/05/30 07:57:10;;;;;;;3.75;2.75;;;;;;;14.22;83.41;99289.38;1739801;82;21566;-83
2022/05/30 07:59:37;;;;;;;3.22;2.80;;;;;;;14.24;83.40;99285.30;1742206;82;21067;-83
2022/05/30 08:02:05;;;;;;;2.52;2.33;;;;;;;14.25;83.38;99289.67;1741942;82;21048;-83
2022/05/30 08:04:32;;;;;;;3.20;2.95;;;;;;;14.25;83.25;99302.91;1742335;82;21107;-84
2022/05/30 08:06:59;;;;;;;5.10;3.00;;;;;;;14.27;83.17;99307.20;1741818;82;21115;-83
2022/05/30 08:09:41;;;;;;;5.12;2.85;;;;;;;14.29;82.96;99308.44;1708199;82;21074;-83
2022/05/30 08:12:10;;;;;;;3.15;2.85;;;;;;;14.33;82.96;99317.06;1741944;82;21033;-82
2022/05/30 08:14:56;;;;;;;4.25;3.35;;;;;;;14.34;82.94;99319.63;1742269;82;21672;-84
2022/05/30 08:17:23;;;;;;;4.08;2.95;;;;;;;14.37;82.55;99316.80;1741954;82;21558;-84
2022/05/30 08:19:51;;;;;;;3.85;3.10;;;;;;;14.42;82.49;99301.52;1742052;82;21389;-85
2022/05/30 08:22:19;;;;;;;4.40;2.80;;;;;;;14.46;82.69;99293.81;1741605;82;21628;-85
2022/05/30 08:24:52;;;;;;;5.20;3.27;;;;;;;14.52;82.51;99286.48;1738800;82;21567;-83
2022/05/30 08:27:19;;;;;;;7.80;3.00;;;;;;;14.57;82.63;99287.08;1712876;82;21523;-83
2022/05/30 08:29:49;;;;;;;3.83;3.33;;;;;;;14.60;82.73;99292.24;1733675;82;21981;-85
2022/05/30 08:32:15;;;;;;;3.20;2.90;;;;;;;14.63;82.47;99304.84;1733554;82;21638;-85
2022/05/30 08:35:03;;;;;;;6.37;3.15;;;;;;;14.67;82.56;99302.88;1733737;82;21154;-85
2022/05/30 08:37:34;;;;;;;4.58;3.22;;;;;;;14.71;82.16;99319.00;1746067;82;21091;-84
2022/05/30 08:42:50;;;;;;;8.03;3.80;;;;;;;14.75;81.80;99311.25;1747461;82;21090;-87
2022/05/30 08:45:21;;;;;;;3.75;3.40;;;;;;;14.73;81.75;99309.65;1745265;82;21074;-83
2022/05/30 08:47:58;;;;;;;5.42;4.00;;;;;;;14.72;81.43;99312.74;1743847;82;20994;-84
2022/05/30 08:50:39;;;;;;;5.10;3.77;;;;;;;14.74;81.51;99309.53;1747762;82;37953;-83
2022/05/30 08:53:31;;;;;;;7.05;3.70;;;;;;;14.80;81.67;99305.23;1747346;82;21580;-85
2022/05/30 08:56:22;;;;;;;6.03;3.98;;;;;;;14.87;81.45;99308.39;1747366;82;21778;-85
2022/05/30 08:59:46;;;;;;;6.08;3.83;;;;;;;14.95;81.40;99302.69;1743313;82;21062;-85
2022/05/30 09:02:24;;;;;;;3.95;3.50;;;;;;;15.04;80.88;99304.80;1747414;82;21061;-83
2022/05/30 09:05:00;;;;;;;5.08;3.67;;;;;;;15.12;80.79;99307.03;1746110;82;21090;-83
2022/05/30 09:07:31;;;;;;;7.08;3.72;;;;;;;15.17;80.49;99311.59;1747553;82;21031;-84
2022/05/30 09:10:05;;;;;;;3.77;3.42;;;;;;;15.22;79.97;99315.68;1719210;82;21062;-84
2022/05/30 09:12:48;;;;;;;6.30;3.50;;;;;;;15.31;79.91;99313.45;1747246;82;21039;-82
2022/05/30 09:15:54;;;;;;;3.90;3.50;;;;;;;15.39;79.91;99301.94;1747410;82;21030;-83
2022/05/30 09:18:25;;;;;;;4.42;4.03;;;;;;;15.47;79.63;99287.77;1747454;82;21558;-84
2022/05/30 09:20:53;;;;;;;5.60;4.33;;;;;;;15.52;79.50;99287.02;1747443;82;21062;-85
2022/05/30 09:23:23;;;;;;;5.72;3.87;;;;;;;15.63;79.26;99293.48;1747764;82;21178;-84
2022/05/30 09:25:56;;;;;;;6.30;4.00;;;;;;;15.72;79.63;99304.90;1747214;81;21062;-84
2022/05/30 09:28:42;;;;;;;4.33;3.90;;;;;;;15.86;79.68;99303.61;1747574;82;21078;-84
2022/05/30 09:31:48;;;;;;;5.47;3.30;;;;;;;16.03;79.35;99307.91;1747390;82;21114;-84
2022/05/30 09:34:45;;;;;;;9.05;3.62;;;;;;;16.20;79.04;99296.26;1739668;82;21051;-84
2022/05/30 09:37:34;;;;;;;5.00;3.72;;;;;;;16.41;78.64;99291.44;1741760;82;21822;-85
2022/05/30 09:40:10;;;;;;;9.80;3.60;;;;;;;16.60;78.65;99285.81;1740432;82;20993;-83
2022/05/30 09:42:49;;;;;;;5.53;3.72;;;;;;;16.74;77.90;99284.09;1741561;82;21621;-83
2022/05/30 09:45:29;;;;;;;13.05;3.83;;;;;;;16.84;77.66;99278.55;1741968;82;21123;-83
2022/05/30 09:48:12;;;;;;;5.72;3.87;;;;;;;16.93;76.65;99267.84;1741417;82;21051;-82
2022/05/30 09:50:58;;;;;;;4.53;4.08;;;;;;;16.94;75.72;99262.42;1741239;82;21161;-83
2022/05/30 09:53:45;;;;;;;10.08;3.80;;;;;;;16.96;75.64;99266.31;1712536;82;20981;-84
2022/05/30 09:56:16;;;;;;;5.80;3.87;;;;;;;16.99;75.75;99264.30;1741384;82;21004;-84
2022/05/30 09:58:48;;;;;;;6.75;4.10;;;;;;;17.02;75.36;99270.75;1741699;82;21531;-84
2022/05/30 10:01:34;;;;;;;6.97;3.77;;;;;;;17.06;74.79;99260.77;1742033;82;21543;-84
2022/05/30 10:04:17;;;;;;;9.85;4.17;;;;;;;17.07;75.28;99269.13;1741653;82;21123;-83
2022/05/30 10:07:13;;;;;;;7.75;3.92;;;;;;;17.08;75.37;99265.05;1741646;82;20984;-84
2022/05/30 10:10:03;;;;;;;6.67;3.95;;;;;;;17.07;75.61;99256.69;1688488;82;21114;-84
2022/05/30 10:12:44;;;;;;;9.78;3.87;;;;;;;17.12;75.07;99256.88;1712374;82;21090;-84
2022/05/30 10:15:32;;;;;;;4.67;3.92;;;;;;;17.14;74.61;99258.46;1741112;82;21559;-82
2022/05/30 10:18:17;;;;;;;7.95;4.10;;;;;;;17.14;74.33;99260.28;1741225;82;21795;-82
2022/05/30 10:21:10;;;;;;;9.40;3.98;;;;;;;17.09;74.24;99248.13;1736564;82;21111;-84
2022/05/30 10:30:57;;;;;;;6.75;4.10;;;;;;;17.08;74.99;99241.13;1739008;82;21071;-86
2022/05/30 10:33:55;;;;;;;6.75;4.20;;;;;;;17.06;74.88;99243.03;1738052;82;21901;-85
2022/05/30 10:36:39;;;;;;;6.67;4.08;;;;;;;17.07;75.04;99242.06;1722991;82;21112;-84
2022/05/30 10:39:30;;;;;;;8.27;5.13;;;;;;;17.12;75.06;99230.30;1687583;84;23084;-84
2022/05/30 10:42:08;;;;;;;6.78;5.00;;;;;;;17.11;74.86;99231.23;1687650;85;21402;-84
2022/05/30 10:44:40;;;;;;;8.75;4.53;;;;;;;17.08;75.12;99229.65;1687555;84;21030;-85
2022/05/30 10:47:12;;;;;;;6.55;4.35;;;;;;;17.06;74.91;99227.09;1687306;85;21858;-85
2022/05/30 10:49:51;;;;;;;5.67;4.40;;;;;;;17.06;74.50;99228.88;1687436;85;21066;-85
2022/05/30 10:52:49;;;;;;;6.75;4.20;;;;;;;17.05;74.72;99232.02;1687383;85;21119;-84
2022/05/30 10:55:34;;;;;;;11.10;4.97;;;;;;;17.04;74.69;99234.77;1687445;84;21122;-86
2022/05/30 10:58:04;;;;;;;11.38;5.20;;;;;;;17.02;74.85;99229.55;1687465;85;21114;-84
2022/05/30 11:00:34;;;;;;;6.97;4.37;;;;;;;17.03;75.28;99229.94;1687338;83;21140;-85
2022/05/30 11:03:21;;;;;;;13.25;4.40;;;;;;;17.08;75.17;99224.33;1687288;85;21054;-85
2022/05/30 11:06:21;;;;;;;7.37;4.03;;;;;;;17.14;75.20;99227.05;1687689;84;21522;-84
2022/05/30 11:08:57;;;;;;;5.47;4.45;;;;;;;17.21;75.17;99227.01;1687444;84;21051;-84
2022/05/30 11:11:48;;;;;;;8.98;4.22;;;;;;;17.26;75.08;99222.23;1687607;85;21112;-83
2022/05/30 11:14:32;;;;;;;5.83;4.47;;;;;;;17.26;74.90;99223.11;1687360;85;21562;-84
2022/05/30 11:17:42;;;;;;;10.05;4.33;;;;;;;17.22;74.50;99216.76;1636103;87;21082;-83
2022/05/30 11:20:38;;;;;;;6.42;4.78;;;;;;;17.17;74.82;99229.51;1618555;87;21114;-84
2022/05/30 11:23:07;;;;;;;9.00;4.53;;;;;;;17.12;74.67;99227.64;1648491;85;21074;-83
2022/05/30 11:26:03;;;;;;;5.95;4.25;;;;;;;17.09;75.41;99230.00;1700488;82;21091;-83
2022/05/30 11:28:50;;;;;;;4.83;4.10;;;;;;;17.08;75.76;99230.48;1753612;81;21167;-83
2022/05/30 11:31:27;;;;;;;11.90;4.78;;;;;;;17.04;76.02;99222.81;1754675;81;21118;-85
2022/05/30 11:34:40;;;;;;;7.67;5.10;;;;;;;17.03;76.21;99225.08;1755608;81;21043;-84
2022/05/30 11:37:26;;;;;;;8.55;4.72;;;;;;;17.04;76.50;99217.50;1755213;81;20980;-85
2022/05/30 11:40:33;;;;;;;6.97;4.62;;;;;;;17.06;76.82;99207.16;1755199;81;21614;-85
2022/05/30 11:43:42;;;;;;;4.97;4.35;;;;;;;17.09;77.16;99206.92;1755468;81;21120;-83
2022/05/30 11:46:25;;;;;;;7.62;5.05;;;;;;;17.12;77.19;99202.38;1755494;81;21079;-85
2022/05/30 11:49:19;;;;;;;6.08;4.45;;;;;;;17.18;77.28;99208.59;1755807;81;21070;-86
2022/05/30 11:52:12;;;;;;;10.27;4.90;;;;;;;17.22;76.92;99200.80;1755847;81;21641;-85
2022/05/30 11:54:47;;;;;;;9.80;4.90;;;;;;;17.27;77.53;99211.98;1719538;83;20988;-86
2022/05/30 11:57:35;;;;;;;6.80;4.62;;;;;;;17.30;77.52;99207.80;1722069;82;21168;-86
2022/05/30 12:00:07;;;;;;;8.65;4.25;;;;;;;17.35;77.52;99210.99;1719560;83;21362;-83
2022/05/30 12:02:57;;;;;;;9.48;4.80;;;;;;;17.40;77.16;99207.55;1719364;83;21077;-84
2022/05/30 12:06:01;;;;;;;7.70;4.60;;;;;;;17.43;76.81;99216.65;1720022;83;21081;-83
2022/05/30 12:08:56;;;;;;;11.60;5.15;;;;;;;17.50;76.43;99213.55;1719352;83;21043;-83
2022/05/30 12:12:04;;;;;;;8.10;4.75;;;;;;;17.56;76.15;99206.00;1719725;83;21764;-84
2022/05/30 12:14:59;;;;;;;8.23;4.40;;;;;;;17.62;75.89;99199.43;1719650;83;20975;-83
2022/05/30 12:24:23;;;;;;;8.65;4.95;;;;;;;17.83;74.87;99207.72;1719462;83;21046;-84
2022/05/30 12:27:00;;;;;;;9.25;5.03;;;;;;;17.90;74.97;99210.84;1710602;82;21761;-83
2022/05/30 12:29:46;;;;;;;6.92;4.97;;;;;;;17.94;74.25;99215.00;1706440;84;21635;-83
2022/05/30 12:32:32;;;;;;;8.45;5.03;;;;;;;17.95;74.17;99206.88;1706547;84;21078;-83
2022/05/30 12:35:10;;;;;;;7.47;5.00;;;;;;;17.96;74.09;99210.42;1742249;81;21028;-83
2022/05/30 12:37:45;;;;;;;7.75;5.03;;;;;;;17.98;73.99;99212.00;1742167;81;21083;-84